sensor_id;sensor_type;location;lat;lon;timestamp;pressure;altitude;pressure_sealevel;temperature;humidity
10706;BME280;5404;42.656;23.336;2023-02-15T07:19:34;96132.06;;;17.70;100.00
10706;BME280;5404;42.656;23.336;2023-02-15T07:22:00;96139.38;;;19.09;100.00
10706;BME280;5404;42.656;23.336;2023-02-15T07:24:26;96110.19;;;19.88;100.00
10706;BME280;5404;42.656;23.336;2023-02-15T07:26:51;96104.03;;;20.34;100.00
10706;BME280;5404;42.656;23.336;2023-02-15T07:29:17;96092.53;;;22.43;100.00
10706;BME280;5404;42.656;23.336;2023-02-15T07:31:43;96083.38;;;23.32;100.00
10706;BME280;5404;42.656;23.336;2023-02-15T07:36:41;96084.63;;;25.45;100.00
10706;BME280;5404;42.656;23.336;2023-02-15T07:39:09;96087.31;;;24.76;100.00
10706;BME280;5404;42.656;23.336;2023-02-15T08:05:09;96066.75;;;24.78;100.00
10706;BME280;5404;42.656;23.336;2023-02-15T08:13:05;96103.69;;;14.02;47.59
10706;BME280;5404;42.656;23.336;2023-02-15T08:15:31;96096.19;;;11.96;57.38
10706;BME280;5404;42.656;23.336;2023-02-15T08:17:56;96106.63;;;10.15;73.75
10706;BME280;5404;42.656;23.336;2023-02-15T08:20:22;96111.38;;;8.98;91.49
10706;BME280;5404;42.656;23.336;2023-02-15T08:22:47;96109.09;;;7.93;100.00
10706;BME280;5404;42.656;23.336;2023-02-15T08:25:13;96108.47;;;7.48;100.00
10706;BME280;5404;42.656;23.336;2023-02-15T08:27:38;96081.28;;;7.03;100.00
10706;BME280;5404;42.656;23.336;2023-02-15T08:30:04;96130.56;;;7.04;100.00
10706;BME280;5404;42.656;23.336;2023-02-15T08:32:31;96120.13;;;6.97;100.00
10706;BME280;5404;42.656;23.336;2023-02-15T08:34:56;96129.56;;;6.77;100.00
10706;BME280;5404;42.656;23.336;2023-02-15T08:37:22;96125.25;;;6.59;100.00
10706;BME280;5404;42.656;23.336;2023-02-15T08:39:47;96129.63;;;6.65;100.00
10706;BME280;5404;42.656;23.336;2023-02-15T08:42:12;96121.47;;;6.55;100.00
10706;BME280;5404;42.656;23.336;2023-02-15T08:44:38;96134.81;;;6.32;100.00
10706;BME280;5404;42.656;23.336;2023-02-15T08:47:04;96130.19;;;6.39;100.00
10706;BME280;5404;42.656;23.336;2023-02-15T08:49:30;96133.19;;;6.31;100.00
10706;BME280;5404;42.656;23.336;2023-02-15T08:51:55;96125.91;;;6.38;100.00
10706;BME280;5404;42.656;23.336;2023-02-15T08:54:20;96132.69;;;6.46;100.00
10706;BME280;5404;42.656;23.336;2023-02-15T08:56:47;96128.34;;;6.40;100.00
10706;BME280;5404;42.656;23.336;2023-02-15T08:59:15;96136.31;;;6.28;100.00
10706;BME280;5404;42.656;23.336;2023-02-15T09:01:42;96136.28;;;6.40;100.00
10706;BME280;5404;42.656;23.336;2023-02-15T09:04:09;96136.78;;;6.25;100.00
10706;BME280;5404;42.656;23.336;2023-02-15T09:06:36;96133.16;;;6.03;100.00
10706;BME280;5404;42.656;23.336;2023-02-15T09:09:02;96132.25;;;5.98;100.00
10706;BME280;5404;42.656;23.336;2023-02-15T09:11:33;96138.84;;;6.23;100.00
10706;BME280;5404;42.656;23.336;2023-02-15T09:14:01;96133.94;;;6.43;100.00
10706;BME280;5404;42.656;23.336;2023-02-15T09:16:28;96041.41;;;5.92;100.00
10706;BME280;5404;42.656;23.336;2023-02-15T09:18:55;96126.44;;;6.52;100.00
10706;BME280;5404;42.656;23.336;2023-02-15T09:21:23;96126.13;;;6.48;100.00
10706;BME280;5404;42.656;23.336;2023-02-15T09:23:51;96130.13;;;6.51;100.00
10706;BME280;5404;42.656;23.336;2023-02-15T09:26:21;96127.44;;;6.62;100.00
10706;BME280;5404;42.656;23.336;2023-02-15T09:28:50;96137.19;;;6.73;100.00
10706;BME280;5404;42.656;23.336;2023-02-15T09:31:19;96126.94;;;6.93;100.00
10706;BME280;5404;42.656;23.336;2023-02-15T09:33:46;96093.81;;;6.35;100.00
10706;BME280;5404;42.656;23.336;2023-02-15T09:38:41;96125.25;;;6.87;100.00
10706;BME280;5404;42.656;23.336;2023-02-15T09:41:29;96126.88;;;7.22;100.00
10706;BME280;5404;42.656;23.336;2023-02-15T10:28:18;96097.25;;;8.22;100.00
10706;BME280;5404;42.656;23.336;2023-02-15T10:30:51;96101.75;;;7.79;100.00
10706;BME280;5404;42.656;23.336;2023-02-15T10:33:38;96090.19;;;8.28;100.00
10706;BME280;5404;42.656;23.336;2023-02-15T10:45:06;96065.34;;;9.66;99.23
10706;BME280;5404;42.656;23.336;2023-02-15T10:56:14;96046.84;;;15.72;53.03
10706;BME280;5404;42.656;23.336;2023-02-15T11:04:29;96049.75;;;15.89;49.40
10706;BME280;5404;42.656;23.336;2023-02-15T11:07:04;96041.53;;;15.99;47.49
10706;BME280;5404;42.656;23.336;2023-02-15T11:09:44;96033.63;;;15.11;47.37
10706;BME280;5404;42.656;23.336;2023-02-15T11:12:17;96041.31;;;14.81;48.65
10706;BME280;5404;42.656;23.336;2023-02-15T11:15:00;96046.00;;;14.33;49.84
10706;BME280;5404;42.656;23.336;2023-02-15T11:17:35;96057.25;;;14.12;52.06
10706;BME280;5404;42.656;23.336;2023-02-15T11:22:35;96037.97;;;13.86;53.62
10706;BME280;5404;42.656;23.336;2023-02-15T11:25:02;96045.78;;;14.30;52.10
10706;BME280;5404;42.656;23.336;2023-02-15T11:27:39;96027.16;;;14.38;50.55
10706;BME280;5404;42.656;23.336;2023-02-15T11:30:12;96033.41;;;14.34;50.75
10706;BME280;5404;42.656;23.336;2023-02-15T11:32:39;96028.31;;;13.33;52.03
10706;BME280;5404;42.656;23.336;2023-02-15T11:40:40;96036.06;;;13.86;51.59
10706;BME280;5404;42.656;23.336;2023-02-15T11:43:13;96032.03;;;13.60;52.71
10706;BME280;5404;42.656;23.336;2023-02-15T11:45:42;96031.59;;;13.53;52.83
10706;BME280;5404;42.656;23.336;2023-02-15T11:48:11;96021.97;;;13.24;54.65
10706;BME280;5404;42.656;23.336;2023-02-15T11:50:38;96028.03;;;13.34;53.96
10706;BME280;5404;42.656;23.336;2023-02-15T11:53:09;96006.47;;;12.82;54.43
10706;BME280;5404;42.656;23.336;2023-02-15T11:55:36;96008.63;;;12.41;57.01
10706;BME280;5404;42.656;23.336;2023-02-15T12:01:02;95996.13;;;12.27;59.61
10706;BME280;5404;42.656;23.336;2023-02-15T12:03:50;95997.38;;;12.44;58.00
10706;BME280;5404;42.656;23.336;2023-02-15T12:06:25;95990.50;;;12.72;57.42
10706;BME280;5404;42.656;23.336;2023-02-15T12:12:29;95992.75;;;12.06;60.96
10706;BME280;5404;42.656;23.336;2023-02-15T12:14:55;95983.41;;;12.09;61.90
10706;BME280;5404;42.656;23.336;2023-02-15T12:17:23;95978.13;;;11.89;63.07
10706;BME280;5404;42.656;23.336;2023-02-15T12:19:50;95980.88;;;11.63;62.88
10706;BME280;5404;42.656;23.336;2023-02-15T12:22:37;95980.44;;;11.16;65.16
10706;BME280;5404;42.656;23.336;2023-02-15T12:25:22;95977.28;;;10.74;67.77
10706;BME280;5404;42.656;23.336;2023-02-15T12:27:50;95974.06;;;10.92;71.02
10706;BME280;5404;42.656;23.336;2023-02-15T12:30:23;95983.41;;;10.95;71.19
10706;BME280;5404;42.656;23.336;2023-02-15T12:32:53;95969.00;;;10.61;74.02
10706;BME280;5404;42.656;23.336;2023-02-15T12:35:30;95982.88;;;10.68;78.66
10706;BME280;5404;42.656;23.336;2023-02-15T12:38:03;95976.19;;;10.45;78.41
10706;BME280;5404;42.656;23.336;2023-02-15T12:40:31;95962.81;;;10.20;78.54
10706;BME280;5404;42.656;23.336;2023-02-15T12:42:57;95965.00;;;9.56;87.00
10706;BME280;5404;42.656;23.336;2023-02-15T12:45:31;95967.41;;;9.16;92.25
10706;BME280;5404;42.656;23.336;2023-02-15T12:50:42;95960.91;;;8.29;100.00
10706;BME280;5404;42.656;23.336;2023-02-15T12:53:17;95952.81;;;8.18;100.00
10706;BME280;5404;42.656;23.336;2023-02-15T12:56:01;95922.94;;;7.80;100.00
10706;BME280;5404;42.656;23.336;2023-02-15T12:58:39;95949.78;;;7.83;100.00
10706;BME280;5404;42.656;23.336;2023-02-15T13:01:12;95963.19;;;7.98;100.00
10706;BME280;5404;42.656;23.336;2023-02-15T13:06:24;95955.22;;;8.20;100.00
10706;BME280;5404;42.656;23.336;2023-02-15T13:08:52;95961.84;;;8.44;100.00
10706;BME280;5404;42.656;23.336;2023-02-15T13:11:22;95959.38;;;8.69;100.00
10706;BME280;5404;42.656;23.336;2023-02-15T13:14:01;95944.41;;;8.58;100.00
10706;BME280;5404;42.656;23.336;2023-02-15T13:16:32;95942.56;;;8.59;100.00
10706;BME280;5404;42.656;23.336;2023-02-15T13:19:03;95940.63;;;8.86;100.00
10706;BME280;5404;42.656;23.336;2023-02-15T13:21:35;95949.34;;;8.76;100.00
10706;BME280;5404;42.656;23.336;2023-02-15T13:24:06;95952.88;;;8.87;100.00
10706;BME280;5404;42.656;23.336;2023-02-15T13:26:36;95939.88;;;8.90;100.00
10706;BME280;5404;42.656;23.336;2023-02-15T13:29:30;95941.81;;;9.05;100.00
10706;BME280;5404;42.656;23.336;2023-02-15T13:31:58;95951.19;;;9.12;100.00
10706;BME280;5404;42.656;23.336;2023-02-15T13:34:36;95940.50;;;9.07;100.00
10706;BME280;5404;42.656;23.336;2023-02-15T13:40:02;95930.25;;;9.31;100.00
10706;BME280;5404;42.656;23.336;2023-02-15T13:45:26;95948.81;;;9.73;99.52
10706;BME280;5404;42.656;23.336;2023-02-15T13:57:14;95967.44;;;9.21;100.00
10706;BME280;5404;42.656;23.336;2023-02-15T14:05:42;95962.69;;;8.86;100.00
10706;BME280;5404;42.656;23.336;2023-02-15T14:10:59;95965.75;;;9.05;100.00
10706;BME280;5404;42.656;23.336;2023-02-15T14:13:39;95976.69;;;9.13;100.00
10706;BME280;5404;42.656;23.336;2023-02-15T14:21:51;95981.59;;;9.31;100.00
10706;BME280;5404;42.656;23.336;2023-02-15T14:24:30;95985.84;;;9.27;100.00
10706;BME280;5404;42.656;23.336;2023-02-15T14:30:10;95997.94;;;9.08;100.00
10706;BME280;5404;42.656;23.336;2023-02-15T14:32:43;95985.00;;;8.80;100.00
10706;BME280;5404;42.656;23.336;2023-02-15T14:35:19;95987.06;;;8.47;100.00
10706;BME280;5404;42.656;23.336;2023-02-15T14:38:13;95996.53;;;8.38;100.00
10706;BME280;5404;42.656;23.336;2023-02-15T14:40:59;95985.84;;;8.06;100.00
10706;BME280;5404;42.656;23.336;2023-02-15T14:46:41;95983.00;;;8.12;100.00
10706;BME280;5404;42.656;23.336;2023-02-15T14:49:11;95981.50;;;8.21;100.00
10706;BME280;5404;42.656;23.336;2023-02-15T15:02:30;95986.28;;;7.33;100.00
10706;BME280;5404;42.656;23.336;2023-02-15T15:05:26;95994.03;;;7.18;100.00
10706;BME280;5404;42.656;23.336;2023-02-15T15:07:55;95984.72;;;7.16;100.00
10706;BME280;5404;42.656;23.336;2023-02-15T15:12:52;95961.97;;;6.81;100.00
10706;BME280;5404;42.656;23.336;2023-02-15T15:25:57;96012.38;;;6.09;100.00
10706;BME280;5404;42.656;23.336;2023-02-15T15:31:02;96017.75;;;5.74;100.00
10706;BME280;5404;42.656;23.336;2023-02-15T15:42:10;96036.44;;;5.10;100.00
10706;BME280;5404;42.656;23.336;2023-02-15T15:50:27;96040.31;;;4.72;100.00
10706;BME280;5404;42.656;23.336;2023-02-15T15:52:54;96039.50;;;4.60;100.00
10706;BME280;5404;42.656;23.336;2023-02-15T15:55:22;96038.13;;;4.58;100.00
10706;BME280;5404;42.656;23.336;2023-02-15T15:57:52;96038.91;;;4.58;100.00
10706;BME280;5404;42.656;23.336;2023-02-15T16:00:39;96040.28;;;4.49;100.00
10706;BME280;5404;42.656;23.336;2023-02-15T16:03:26;96047.25;;;4.44;100.00
10706;BME280;5404;42.656;23.336;2023-02-15T16:05:52;96048.53;;;4.41;100.00
10706;BME280;5404;42.656;23.336;2023-02-15T16:08:35;96045.31;;;4.39;100.00
10706;BME280;5404;42.656;23.336;2023-02-15T16:11:15;96045.19;;;4.34;100.00
10706;BME280;5404;42.656;23.336;2023-02-15T16:13:42;96036.78;;;4.26;100.00
10706;BME280;5404;42.656;23.336;2023-02-15T16:16:11;96038.81;;;4.24;100.00
10706;BME280;5404;42.656;23.336;2023-02-15T16:18:38;96056.47;;;4.23;100.00
10706;BME280;5404;42.656;23.336;2023-02-15T16:21:16;96053.13;;;4.16;100.00
10706;BME280;5404;42.656;23.336;2023-02-15T16:26:48;96057.53;;;4.04;100.00
10706;BME280;5404;42.656;23.336;2023-02-15T16:29:26;96056.25;;;3.95;100.00
10706;BME280;5404;42.656;23.336;2023-02-15T16:34:27;96064.59;;;3.92;100.00
10706;BME280;5404;42.656;23.336;2023-02-15T16:37:26;96070.31;;;3.89;100.00
10706;BME280;5404;42.656;23.336;2023-02-15T16:39:56;96065.94;;;3.83;100.00
10706;BME280;5404;42.656;23.336;2023-02-15T16:42:22;96072.69;;;3.79;100.00
10706;BME280;5404;42.656;23.336;2023-02-15T16:45:08;96079.78;;;3.79;100.00
10706;BME280;5404;42.656;23.336;2023-02-15T16:47:43;96069.09;;;3.74;100.00
10706;BME280;5404;42.656;23.336;2023-02-15T16:50:26;96067.56;;;3.66;100.00
10706;BME280;5404;42.656;23.336;2023-02-15T16:52:53;96068.00;;;3.63;100.00
10706;BME280;5404;42.656;23.336;2023-02-15T16:55:22;96061.78;;;3.58;100.00
10706;BME280;5404;42.656;23.336;2023-02-15T16:57:47;96069.91;;;3.56;100.00
10706;BME280;5404;42.656;23.336;2023-02-15T17:00:19;96068.16;;;3.50;100.00
10706;BME280;5404;42.656;23.336;2023-02-15T17:03:01;96066.75;;;3.47;100.00
10706;BME280;5404;42.656;23.336;2023-02-15T17:05:32;96061.56;;;3.41;100.00
10706;BME280;5404;42.656;23.336;2023-02-15T17:11:17;96065.88;;;3.35;100.00
10706;BME280;5404;42.656;23.336;2023-02-15T17:16:45;96059.81;;;3.35;100.00
10706;BME280;5404;42.656;23.336;2023-02-15T17:19:26;96061.84;;;3.33;100.00
10706;BME280;5404;42.656;23.336;2023-02-15T17:24:24;96026.69;;;3.03;100.00
10706;BME280;5404;42.656;23.336;2023-02-15T17:26:54;96066.38;;;3.26;100.00
10706;BME280;5404;42.656;23.336;2023-02-15T17:29:30;96064.34;;;3.28;100.00
10706;BME280;5404;42.656;23.336;2023-02-15T17:31:57;96066.81;;;3.23;100.00
10706;BME280;5404;42.656;23.336;2023-02-15T17:34:45;96071.34;;;3.16;100.00
10706;BME280;5404;42.656;23.336;2023-02-15T17:37:13;96064.63;;;3.20;100.00
10706;BME280;5404;42.656;23.336;2023-02-15T17:39:47;96065.03;;;3.17;100.00
10706;BME280;5404;42.656;23.336;2023-02-15T17:42:13;96070.31;;;3.17;100.00
10706;BME280;5404;42.656;23.336;2023-02-15T17:44:38;96070.75;;;3.14;100.00
10706;BME280;5404;42.656;23.336;2023-02-15T17:47:04;96066.94;;;3.10;100.00
10706;BME280;5404;42.656;23.336;2023-02-15T17:49:29;96069.16;;;3.13;100.00
10706;BME280;5404;42.656;23.336;2023-02-15T17:52:00;96075.41;;;3.12;100.00
10706;BME280;5404;42.656;23.336;2023-02-15T17:54:27;96078.06;;;3.12;100.00
10706;BME280;5404;42.656;23.336;2023-02-15T17:57:12;96077.47;;;3.10;100.00
10706;BME280;5404;42.656;23.336;2023-02-15T17:59:39;96081.50;;;3.12;100.00
10706;BME280;5404;42.656;23.336;2023-02-15T18:02:22;96073.81;;;3.11;100.00
10706;BME280;5404;42.656;23.336;2023-02-15T18:05:16;96074.41;;;3.13;100.00
10706;BME280;5404;42.656;23.336;2023-02-15T18:08:00;96073.81;;;3.11;100.00
10706;BME280;5404;42.656;23.336;2023-02-15T18:10:43;96071.41;;;3.09;100.00
10706;BME280;5404;42.656;23.336;2023-02-15T18:13:27;96081.72;;;3.11;100.00
10706;BME280;5404;42.656;23.336;2023-02-15T18:15:53;96072.41;;;3.08;100.00
10706;BME280;5404;42.656;23.336;2023-02-15T18:18:21;96065.94;;;3.11;100.00
10706;BME280;5404;42.656;23.336;2023-02-15T18:20:46;96063.00;;;3.01;100.00
10706;BME280;5404;42.656;23.336;2023-02-15T18:23:15;96080.31;;;3.08;100.00
10706;BME280;5404;42.656;23.336;2023-02-15T18:25:41;96085.59;;;3.08;100.00
10706;BME280;5404;42.656;23.336;2023-02-15T18:28:07;96078.94;;;3.06;100.00
10706;BME280;5404;42.656;23.336;2023-02-15T18:30:35;96078.56;;;3.02;100.00
10706;BME280;5404;42.656;23.336;2023-02-15T18:33:01;96069.84;;;3.02;100.00
10706;BME280;5404;42.656;23.336;2023-02-15T18:35:31;96077.31;;;3.05;100.00
10706;BME280;5404;42.656;23.336;2023-02-15T18:37:58;96065.25;;;2.97;100.00
10706;BME280;5404;42.656;23.336;2023-02-15T18:40:26;96072.47;;;3.02;100.00
10706;BME280;5404;42.656;23.336;2023-02-15T18:42:53;96076.78;;;2.96;100.00
10706;BME280;5404;42.656;23.336;2023-02-15T18:45:23;96081.66;;;2.93;100.00
10706;BME280;5404;42.656;23.336;2023-02-15T18:47:50;96075.66;;;2.86;100.00
10706;BME280;5404;42.656;23.336;2023-02-15T18:50:18;96081.72;;;2.86;100.00
10706;BME280;5404;42.656;23.336;2023-02-15T18:52:45;96076.91;;;2.83;100.00
10706;BME280;5404;42.656;23.336;2023-02-15T18:55:22;96086.00;;;2.81;100.00
10706;BME280;5404;42.656;23.336;2023-02-15T18:57:50;96080.38;;;2.77;100.00
10706;BME280;5404;42.656;23.336;2023-02-15T19:02:42;96086.94;;;2.68;100.00
10706;BME280;5404;42.656;23.336;2023-02-15T19:05:07;96089.81;;;2.60;100.00
10706;BME280;5404;42.656;23.336;2023-02-15T19:07:33;96086.97;;;2.62;100.00
10706;BME280;5404;42.656;23.336;2023-02-15T19:10:01;96083.78;;;2.53;100.00
10706;BME280;5404;42.656;23.336;2023-02-15T19:12:28;96085.41;;;2.54;100.00
10706;BME280;5404;42.656;23.336;2023-02-15T19:14:54;96072.31;;;2.48;100.00
10706;BME280;5404;42.656;23.336;2023-02-15T19:17:21;96086.91;;;2.44;100.00
10706;BME280;5404;42.656;23.336;2023-02-15T19:19:48;96088.56;;;2.38;100.00
10706;BME280;5404;42.656;23.336;2023-02-15T19:22:27;96081.03;;;2.42;100.00
10706;BME280;5404;42.656;23.336;2023-02-15T19:24:55;96083.06;;;2.39;100.00
10706;BME280;5404;42.656;23.336;2023-02-15T19:27:26;96082.69;;;2.36;100.00
10706;BME280;5404;42.656;23.336;2023-02-15T19:29:53;96080.28;;;2.34;100.00
10706;BME280;5404;42.656;23.336;2023-02-15T19:32:19;96078.72;;;2.27;100.00
10706;BME280;5404;42.656;23.336;2023-02-15T19:34:44;96079.72;;;2.26;100.00
10706;BME280;5404;42.656;23.336;2023-02-15T19:37:27;96081.16;;;2.22;100.00
10706;BME280;5404;42.656;23.336;2023-02-15T19:39:55;96083.59;;;2.23;100.00
10706;BME280;5404;42.656;23.336;2023-02-15T19:42:22;96093.91;;;2.25;100.00
10706;BME280;5404;42.656;23.336;2023-02-15T19:44:49;96092.50;;;2.22;100.00
10706;BME280;5404;42.656;23.336;2023-02-15T19:47:15;96057.28;;;1.92;100.00
10706;BME280;5404;42.656;23.336;2023-02-15T19:49:40;96104.91;;;2.09;100.00
10706;BME280;5404;42.656;23.336;2023-02-15T19:52:14;96099.03;;;2.07;100.00
10706;BME280;5404;42.656;23.336;2023-02-15T19:54:40;95987.41;;;1.41;100.00
10706;BME280;5404;42.656;23.336;2023-02-15T19:57:09;96096.63;;;2.05;100.00
10706;BME280;5404;42.656;23.336;2023-02-15T19:59:35;96097.88;;;1.96;100.00
10706;BME280;5404;42.656;23.336;2023-02-15T20:02:00;96101.78;;;1.87;100.00
10706;BME280;5404;42.656;23.336;2023-02-15T20:04:26;96098.97;;;1.76;100.00
10706;BME280;5404;42.656;23.336;2023-02-15T20:06:54;96083.69;;;1.60;100.00
10706;BME280;5404;42.656;23.336;2023-02-15T20:09:25;96101.22;;;1.66;100.00
10706;BME280;5404;42.656;23.336;2023-02-15T20:11:53;96095.41;;;1.57;100.00
10706;BME280;5404;42.656;23.336;2023-02-15T20:14:19;96097.03;;;1.52;100.00
10706;BME280;5404;42.656;23.336;2023-02-15T20:16:45;96097.22;;;1.57;100.00
10706;BME280;5404;42.656;23.336;2023-02-15T20:19:10;96094.19;;;1.53;100.00
10706;BME280;5404;42.656;23.336;2023-02-15T20:21:38;96098.66;;;1.53;100.00
10706;BME280;5404;42.656;23.336;2023-02-15T20:24:04;96075.69;;;1.35;100.00
10706;BME280;5404;42.656;23.336;2023-02-15T20:26:30;96102.34;;;1.32;100.00
10706;BME280;5404;42.656;23.336;2023-02-15T20:28:58;96095.69;;;1.30;100.00
10706;BME280;5404;42.656;23.336;2023-02-15T20:31:23;96087.19;;;1.34;100.00
10706;BME280;5404;42.656;23.336;2023-02-15T20:33:50;96073.66;;;1.24;100.00
10706;BME280;5404;42.656;23.336;2023-02-15T20:36:20;96093.69;;;1.25;100.00
10706;BME280;5404;42.656;23.336;2023-02-15T20:38:47;96102.16;;;1.20;100.00
10706;BME280;5404;42.656;23.336;2023-02-15T20:41:19;96098.53;;;1.15;100.00
10706;BME280;5404;42.656;23.336;2023-02-15T20:44:01;96091.25;;;1.10;100.00
10706;BME280;5404;42.656;23.336;2023-02-15T20:46:26;96089.25;;;1.12;100.00
10706;BME280;5404;42.656;23.336;2023-02-15T20:48:52;96092.91;;;1.11;100.00
10706;BME280;5404;42.656;23.336;2023-02-15T20:51:19;96099.34;;;1.09;100.00
10706;BME280;5404;42.656;23.336;2023-02-15T20:53:46;96098.53;;;1.08;100.00
10706;BME280;5404;42.656;23.336;2023-02-15T20:56:20;96096.53;;;1.04;100.00
10706;BME280;5404;42.656;23.336;2023-02-15T20:58:46;96084.84;;;0.87;100.00
10706;BME280;5404;42.656;23.336;2023-02-15T21:01:12;96096.94;;;0.88;100.00
10706;BME280;5404;42.656;23.336;2023-02-15T21:03:38;96092.72;;;0.87;100.00
10706;BME280;5404;42.656;23.336;2023-02-15T21:06:03;96101.59;;;0.86;100.00
10706;BME280;5404;42.656;23.336;2023-02-15T21:08:29;96090.50;;;0.90;100.00
10706;BME280;5404;42.656;23.336;2023-02-15T21:10:55;96081.19;;;0.88;100.00
10706;BME280;5404;42.656;23.336;2023-02-15T21:13:30;96095.31;;;0.93;100.00
10706;BME280;5404;42.656;23.336;2023-02-15T21:15:56;96090.88;;;0.81;100.00
10706;BME280;5404;42.656;23.336;2023-02-15T21:18:26;96092.53;;;0.75;100.00
10706;BME280;5404;42.656;23.336;2023-02-15T21:20:54;96089.06;;;0.81;100.00
10706;BME280;5404;42.656;23.336;2023-02-15T21:23:23;96093.72;;;0.79;100.00
10706;BME280;5404;42.656;23.336;2023-02-15T21:25:50;96092.91;;;0.79;100.00
10706;BME280;5404;42.656;23.336;2023-02-15T21:28:22;96102.81;;;0.77;100.00
10706;BME280;5404;42.656;23.336;2023-02-15T21:30:49;96093.72;;;0.73;100.00
10706;BME280;5404;42.656;23.336;2023-02-15T21:33:15;96098.56;;;0.69;100.00
10706;BME280;5404;42.656;23.336;2023-02-15T21:35:43;96083.63;;;0.57;100.00
10706;BME280;5404;42.656;23.336;2023-02-15T21:38:13;96074.75;;;0.51;100.00
10706;BME280;5404;42.656;23.336;2023-02-15T21:40:40;96083.41;;;0.45;100.00
10706;BME280;5404;42.656;23.336;2023-02-15T21:43:13;96097.13;;;0.54;100.00
10706;BME280;5404;42.656;23.336;2023-02-15T21:45:58;96100.16;;;0.44;100.00
10706;BME280;5404;42.656;23.336;2023-02-15T21:48:43;96099.13;;;0.39;100.00
10706;BME280;5404;42.656;23.336;2023-02-15T21:51:10;96091.69;;;0.29;100.00
10706;BME280;5404;42.656;23.336;2023-02-15T21:53:55;96117.91;;;0.36;100.00
10706;BME280;5404;42.656;23.336;2023-02-15T21:56:21;96069.06;;;0.09;100.00
10706;BME280;5404;42.656;23.336;2023-02-15T21:58:47;96111.63;;;0.37;100.00
10706;BME280;5404;42.656;23.336;2023-02-15T22:01:22;96120.09;;;0.39;100.00
10706;BME280;5404;42.656;23.336;2023-02-15T22:03:48;96020.22;;;-0.19;100.00
10706;BME280;5404;42.656;23.336;2023-02-15T22:06:14;96118.50;;;0.38;100.00
10706;BME280;5404;42.656;23.336;2023-02-15T22:08:39;96103.53;;;0.19;100.00
10706;BME280;5404;42.656;23.336;2023-02-15T22:11:13;96113.03;;;0.26;100.00
10706;BME280;5404;42.656;23.336;2023-02-15T22:13:40;96114.66;;;0.21;100.00
10706;BME280;5404;42.656;23.336;2023-02-15T22:16:06;96123.28;;;0.21;100.00
10706;BME280;5404;42.656;23.336;2023-02-15T22:18:33;96124.88;;;0.16;100.00
10706;BME280;5404;42.656;23.336;2023-02-15T22:20:58;96113.75;;;0.00;100.00
10706;BME280;5404;42.656;23.336;2023-02-15T22:23:25;96127.09;;;0.12;100.00
10706;BME280;5404;42.656;23.336;2023-02-15T22:25:53;96119.00;;;0.07;100.00
10706;BME280;5404;42.656;23.336;2023-02-15T22:28:20;96124.44;;;0.06;100.00
10706;BME280;5404;42.656;23.336;2023-02-15T22:30:46;96127.69;;;0.01;100.00
10706;BME280;5404;42.656;23.336;2023-02-15T22:33:32;96127.28;;;0.04;100.00
10706;BME280;5404;42.656;23.336;2023-02-15T22:35:58;96126.84;;;0.00;100.00
10706;BME280;5404;42.656;23.336;2023-02-15T22:38:24;96123.44;;;0.00;100.00
10706;BME280;5404;42.656;23.336;2023-02-15T22:40:51;96121.00;;;-0.02;100.00
10706;BME280;5404;42.656;23.336;2023-02-15T22:43:38;96123.44;;;0.00;100.00
10706;BME280;5404;42.656;23.336;2023-02-15T22:46:10;96119.41;;;-0.03;100.00
10706;BME280;5404;42.656;23.336;2023-02-15T22:48:37;96130.28;;;0.01;100.00
10706;BME280;5404;42.656;23.336;2023-02-15T22:51:03;96121.81;;;-0.01;100.00
10706;BME280;5404;42.656;23.336;2023-02-15T22:53:28;96122.63;;;-0.01;100.00
10706;BME280;5404;42.656;23.336;2023-02-15T22:55:54;96131.47;;;-0.02;100.00
10706;BME280;5404;42.656;23.336;2023-02-15T22:58:25;96127.47;;;-0.04;100.00
10706;BME280;5404;42.656;23.336;2023-02-15T23:00:52;96121.63;;;0.00;100.00
10706;BME280;5404;42.656;23.336;2023-02-15T23:03:23;96128.28;;;-0.04;100.00
10706;BME280;5404;42.656;23.336;2023-02-15T23:05:49;96127.06;;;-0.01;100.00
10706;BME280;5404;42.656;23.336;2023-02-15T23:08:15;96128.28;;;-0.04;100.00
10706;BME280;5404;42.656;23.336;2023-02-15T23:10:42;96129.03;;;-0.10;100.00
10706;BME280;5404;42.656;23.336;2023-02-15T23:13:22;96125.19;;;-0.14;100.00
10706;BME280;5404;42.656;23.336;2023-02-15T23:15:57;96117.31;;;-0.20;100.00
10706;BME280;5404;42.656;23.336;2023-02-15T23:18:32;96121.72;;;-0.21;100.00
10706;BME280;5404;42.656;23.336;2023-02-15T23:23:42;96124.13;;;-0.26;100.00
10706;BME280;5404;42.656;23.336;2023-02-15T23:26:28;96093.44;;;-0.45;100.00
10706;BME280;5404;42.656;23.336;2023-02-15T23:28:58;96112.81;;;-0.33;100.00
10706;BME280;5404;42.656;23.336;2023-02-15T23:31:28;96113.25;;;-0.29;100.00
10706;BME280;5404;42.656;23.336;2023-02-15T23:33:55;96109.22;;;-0.32;100.00
10706;BME280;5404;42.656;23.336;2023-02-15T23:38:56;96079.53;;;-0.52;100.00
10706;BME280;5404;42.656;23.336;2023-02-15T23:41:28;96109.81;;;-0.36;100.00
10706;BME280;5404;42.656;23.336;2023-02-15T23:43:57;96106.38;;;-0.37;100.00
10706;BME280;5404;42.656;23.336;2023-02-15T23:46:32;96101.53;;;-0.40;100.00
10706;BME280;5404;42.656;23.336;2023-02-15T23:49:00;96111.63;;;-0.37;100.00
10706;BME280;5404;42.656;23.336;2023-02-15T23:51:30;96110.78;;;-0.37;100.00
10706;BME280;5404;42.656;23.336;2023-02-15T23:53:56;96112.59;;;-0.38;100.00
10706;BME280;5404;42.656;23.336;2023-02-15T23:56:22;96110.38;;;-0.41;100.00
10706;BME280;5404;42.656;23.336;2023-02-15T23:58:48;96104.53;;;-0.43;100.00
